Time;durP1;ratioP1;P1;durP2;ratioP2;P2;SDS_P1;SDS_P2;PMS_P1;PMS_P2;Temp;Humidity;BMP_temperature;BMP_pressure;BME280_temperature;BME280_humidity;BME280_pressure;Samples;Min_cycle;Max_cycle;Signal;HPM_P1;HPM_P2
2022/12/30 00:01:40;;;;;;;;;22.00;19.00;;;;;15.80;41.10;99863.28;5064061;28;8851;-75
2022/12/30 00:04:09;;;;;;;;;16.80;16.80;;;;;15.97;41.06;99852.47;5048155;28;8859;-76
2022/12/30 00:06:39;;;;;;;;;19.00;17.60;;;;;15.67;41.43;99856.44;5107286;27;8871;-76
2022/12/30 00:09:09;;;;;;;;;17.80;16.60;;;;;15.59;41.53;99861.84;5127051;27;8845;-76
2022/12/30 00:11:37;;;;;;;;;19.80;18.40;;;;;15.76;41.14;99864.22;5092833;27;8879;-75
2022/12/30 00:33:54;;;;;;;;;16.20;16.00;;;;;16.01;40.44;99862.06;4969395;28;8873;-72
2022/12/30 00:36:25;;;;;;;;;15.20;12.80;;;;;15.97;40.60;99863.88;4988267;28;8882;-75
2022/12/30 00:38:56;;;;;;;;;13.20;13.20;;;;;15.90;40.67;99871.91;5002772;28;8838;-75
2022/12/30 00:44:11;;;;;;;;;15.80;14.60;;;;;15.96;40.18;99884.94;5012095;28;8857;-73
2022/12/30 00:46:43;;;;;;;;;10.20;9.80;;;;;15.97;40.43;99882.28;4988743;28;8858;-73
2022/12/30 00:57:33;;;;;;;;;17.80;14.80;;;;;15.73;40.66;99890.56;5121231;27;8850;-75
2022/12/30 01:00:03;;;;;;;;;13.80;11.40;;;;;15.75;40.97;99892.28;5130194;27;8987;-74
2022/12/30 01:02:32;;;;;;;;;15.60;13.40;;;;;15.75;40.87;99894.06;5113881;27;8837;-75
2022/12/30 01:05:01;;;;;;;;;16.00;14.80;;;;;15.81;40.72;99886.06;5130532;27;8849;-74
2022/12/30 01:07:30;;;;;;;;;15.80;15.40;;;;;15.70;40.61;99893.22;5096106;27;8855;-74
2022/12/30 01:10:00;;;;;;;;;15.20;12.40;;;;;15.62;41.21;99897.75;5113123;27;8867;-73
2022/12/30 01:12:30;;;;;;;;;14.60;13.00;;;;;15.59;41.20;99882.88;5137955;27;8839;-75
2022/12/30 01:14:59;;;;;;;;;14.60;11.20;;;;;15.55;41.15;99884.66;5134161;27;8931;-72
2022/12/30 01:17:31;;;;;;;;;15.00;12.20;;;;;15.51;41.06;99888.25;5116379;27;8839;-75
2022/12/30 01:19:59;;;;;;;;;16.00;15.00;;;;;15.49;41.35;99887.41;5065171;27;8990;-75
2022/12/30 01:22:28;;;;;;;;;14.60;12.60;;;;;15.62;40.97;99889.84;5096460;27;8851;-77
2022/12/30 01:24:59;;;;;;;;;12.40;12.40;;;;;15.51;41.55;99879.50;5094941;27;8953;-75
2022/12/30 01:27:30;;;;;;;;;14.40;13.00;;;;;15.69;41.06;99880.97;5130172;27;8842;-73
2022/12/30 01:30:00;;;;;;;;;10.20;9.80;;;;;15.73;40.84;99883.56;5127706;27;8954;-75
2022/12/30 01:32:31;;;;;;;;;11.60;10.40;;;;;15.67;40.97;99878.38;5094555;27;8956;-74
2022/12/30 01:34:59;;;;;;;;;11.60;11.20;;;;;15.80;40.62;99871.16;5129888;27;8862;-76
2022/12/30 01:37:29;;;;;;;;;11.60;11.60;;;;;15.92;40.25;99878.00;5131924;27;8823;-73
2022/12/30 01:39:58;;;;;;;;;11.40;10.80;;;;;15.79;40.88;99879.97;5131918;27;8867;-74
2022/12/30 01:42:30;;;;;;;;;11.80;10.00;;;;;15.74;40.75;99868.66;5131346;27;8835;-75
2022/12/30 01:45:00;;;;;;;;;14.20;10.60;;;;;15.79;40.83;99870.31;5104020;27;8945;-72
2022/12/30 01:47:38;;;;;;;;;8.60;7.60;;;;;15.75;40.83;99873.03;5127962;27;8857;-76
2022/12/30 01:50:26;;;;;;;;;12.00;8.60;;;;;15.91;40.82;99866.59;5093553;27;8881;-75
2022/12/30 01:53:00;;;;;;;;;10.60;10.20;;;;;15.59;40.99;99865.34;5065188;28;8856;-75
2022/12/30 01:55:34;;;;;;;;;10.60;10.00;;;;;15.86;40.52;99863.19;5065243;28;8921;-75
2022/12/30 01:58:08;;;;;;;;;12.40;11.00;;;;;15.83;40.49;99859.75;5052660;28;8864;-72
2022/12/30 02:00:37;;;;;;;;;14.00;11.20;;;;;15.91;40.73;99858.69;5065530;28;8875;-74
2022/12/30 02:03:07;;;;;;;;;8.80;8.80;;;;;15.95;40.74;99855.16;5068567;28;8841;-74
2022/12/30 02:05:40;;;;;;;;;15.00;13.00;;;;;15.81;40.80;99861.53;5048418;28;9686;-74
2022/12/30 02:08:12;;;;;;;;;8.60;8.40;;;;;15.64;41.13;99862.63;5048348;28;8860;-71
2022/12/30 02:10:46;;;;;;;;;8.20;8.20;;;;;15.76;41.23;99856.34;5002037;28;8884;-73
2022/12/30 02:13:17;;;;;;;;;8.00;7.80;;;;;15.72;40.97;99859.88;5067651;28;8848;-74
2022/12/30 02:16:05;;;;;;;;;10.20;10.00;;;;;15.96;40.55;99859.50;5056962;28;8911;-74
2022/12/30 02:18:46;;;;;;;;;9.40;9.40;;;;;15.97;40.44;99852.47;5065012;28;8852;-74
2022/12/30 02:21:45;;;;;;;;;10.60;9.80;;;;;15.78;40.95;99851.91;5066926;28;8843;-74
2022/12/30 02:24:55;;;;;;;;;10.40;9.20;;;;;15.93;40.75;99848.16;5008215;28;8870;-75
2022/12/30 02:27:58;;;;;;;;;11.00;11.00;;;;;15.52;41.75;99853.19;4990973;28;8898;-75
2022/12/30 02:30:37;;;;;;;;;10.40;9.20;;;;;15.79;41.01;99848.41;5019909;28;8848;-75
2022/12/30 02:33:16;;;;;;;;;9.60;9.20;;;;;15.80;40.83;99842.25;5047866;28;8996;-74
2022/12/30 02:35:55;;;;;;;;;10.80;9.80;;;;;15.72;41.24;99852.00;5064354;28;8969;-73
2022/12/30 02:38:36;;;;;;;;;11.80;10.60;;;;;15.76;41.11;99849.34;4995185;28;8857;-74
2022/12/30 02:46:57;;;;;;;;;10.20;10.20;;;;;15.80;40.74;99847.50;5062448;28;8864;-73
2022/12/30 02:49:30;;;;;;;;;10.00;9.60;;;;;15.85;40.90;99848.28;4999675;28;8876;-73
2022/12/30 02:52:14;;;;;;;;;10.80;9.60;;;;;15.78;40.87;99854.53;5047028;28;8852;-74
2022/12/30 02:54:44;;;;;;;;;7.40;5.80;;;;;15.88;40.52;99843.00;5056524;28;8898;-73
2022/12/30 02:57:28;;;;;;;;;9.60;8.00;;;;;16.08;40.19;99847.88;5062750;28;8970;-73
2022/12/30 03:06:06;;;;;;;;;11.00;8.20;;;;;16.05;40.24;99849.69;5006083;28;8890;-72
2022/12/30 03:08:43;;;;;;;;;6.00;6.00;;;;;15.70;41.18;99844.13;5011555;28;8897;-73
2022/12/30 03:11:16;;;;;;;;;8.20;7.20;;;;;15.72;40.85;99846.72;5009252;28;8884;-74
2022/12/30 03:13:55;;;;;;;;;7.80;4.80;;;;;15.84;40.90;99843.94;4985532;28;8956;-77
2022/12/30 03:16:30;;;;;;;;;6.20;6.20;;;;;15.73;41.12;99845.84;4970231;28;9620;-77
2022/12/30 03:19:01;;;;;;;;;7.40;7.40;;;;;15.60;41.35;99850.44;4986698;28;8838;-75
2022/12/30 03:21:36;;;;;;;;;8.60;8.60;;;;;15.74;40.68;99842.34;4986456;28;8910;-75
2022/12/30 03:27:05;;;;;;;;;10.00;6.80;;;;;15.70;40.98;99840.63;4985901;28;9033;-75
2022/12/30 03:29:40;;;;;;;;;8.40;7.20;;;;;15.80;40.63;99831.72;4985720;28;8840;-76
2022/12/30 03:32:12;;;;;;;;;7.60;7.20;;;;;15.68;41.08;99842.44;4984937;28;8918;-75
2022/12/30 03:34:41;;;;;;;;;10.00;8.00;;;;;15.59;40.91;99836.44;4986026;28;10127;-75
2022/12/30 03:37:18;;;;;;;;;9.40;6.20;;;;;15.77;40.83;99829.16;4990995;28;8868;-74
2022/12/30 03:39:52;;;;;;;;;5.40;4.60;;;;;15.94;40.11;99835.00;5025156;28;8852;-74
2022/12/30 03:42:22;;;;;;;;;5.80;5.80;;;;;16.03;40.20;99833.97;5024731;28;8969;-78
2022/12/30 03:44:52;;;;;;;;;7.40;7.20;;;;;15.95;40.48;99827.94;5093802;27;8853;-74
2022/12/30 03:47:21;;;;;;;;;10.60;9.40;;;;;16.10;39.92;99835.56;5128107;27;8869;-74
2022/12/30 03:49:50;;;;;;;;;5.80;5.80;;;;;16.12;39.90;99836.44;5129094;27;8861;-74
2022/12/30 03:52:21;;;;;;;;;4.60;4.60;;;;;16.10;39.95;99835.56;5110286;27;8884;-74
2022/12/30 03:54:50;;;;;;;;;7.80;5.60;;;;;16.04;40.21;99832.19;5141280;27;8927;-76
2022/12/30 03:57:19;;;;;;;;;9.00;8.00;;;;;16.08;40.02;99834.72;5130987;27;8851;-75
2022/12/30 03:59:48;;;;;;;;;5.80;4.40;;;;;15.88;40.40;99836.84;5149280;27;8832;-74
2022/12/30 04:02:17;;;;;;;;;5.40;5.00;;;;;15.99;39.84;99837.53;5148041;27;8859;-75
2022/12/30 04:04:46;;;;;;;;;7.60;5.80;;;;;15.86;40.23;99839.53;5130849;27;9612;-74
2022/12/30 04:07:14;;;;;;;;;8.60;6.60;;;;;16.03;40.04;99841.84;5130400;27;8839;-75
2022/12/30 04:09:45;;;;;;;;;9.00;8.00;;;;;15.92;40.25;99843.81;5092377;27;8841;-75
2022/12/30 04:12:14;;;;;;;;;4.60;4.60;;;;;15.97;39.94;99844.56;5114664;27;8929;-75
2022/12/30 04:14:42;;;;;;;;;8.20;6.80;;;;;15.92;39.96;99839.41;5132904;27;8860;-75
2022/12/30 04:17:11;;;;;;;;;8.00;8.00;;;;;15.99;39.65;99840.16;5113934;27;8868;-74
2022/12/30 04:19:40;;;;;;;;;6.80;6.80;;;;;15.93;39.78;99846.38;5132614;27;8872;-76
2022/12/30 04:22:09;;;;;;;;;7.60;7.20;;;;;15.94;39.82;99845.50;5113845;27;8872;-74
2022/12/30 04:24:37;;;;;;;;;10.00;10.00;;;;;15.89;40.01;99835.97;5132709;27;8841;-74
2022/12/30 04:27:07;;;;;;;;;8.00;6.20;;;;;15.79;40.22;99848.41;5132026;27;8870;-74
2022/12/30 04:29:37;;;;;;;;;8.40;8.40;;;;;15.39;40.63;99846.41;5132025;27;8945;-75
2022/12/30 04:32:05;;;;;;;;;7.20;5.40;;;;;15.38;40.84;99847.28;5132691;27;8971;-75
2022/12/30 04:34:34;;;;;;;;;7.80;7.80;;;;;15.11;41.42;99846.78;5114055;27;8915;-75
2022/12/30 04:37:03;;;;;;;;;6.40;6.00;;;;;15.31;41.20;99838.63;5130765;27;8930;-74
2022/12/30 04:39:32;;;;;;;;;10.60;9.60;;;;;15.14;41.18;99843.25;5128232;27;8858;-76
2022/12/30 04:42:00;;;;;;;;;11.00;10.00;;;;;15.25;41.06;99843.09;5134478;27;8835;-74
2022/12/30 04:44:31;;;;;;;;;5.60;5.60;;;;;15.16;41.17;99844.97;5134364;27;8843;-74
2022/12/30 04:47:00;;;;;;;;;8.80;8.80;;;;;15.14;41.32;99844.13;5133926;27;8835;-75
2022/12/30 04:49:29;;;;;;;;;8.40;8.00;;;;;15.15;41.35;99851.09;5117423;27;8839;-76
2022/12/30 04:51:57;;;;;;;;;13.00;11.80;;;;;15.31;40.83;99854.41;5146710;27;8857;-74
2022/12/30 04:54:26;;;;;;;;;8.00;8.00;;;;;15.00;41.68;99844.31;5132429;27;8845;-75
2022/12/30 04:56:55;;;;;;;;;10.20;9.00;;;;;14.99;41.47;99847.84;5131454;27;8861;-75
2022/12/30 04:59:24;;;;;;;;;9.80;8.80;;;;;14.91;42.06;99851.44;5096329;27;8852;-74
2022/12/30 05:01:54;;;;;;;;;10.60;9.80;;;;;14.94;41.87;99846.16;5126292;27;8886;-76
2022/12/30 05:04:23;;;;;;;;;12.00;7.60;;;;;14.98;41.74;99853.09;5133861;27;8959;-75
2022/12/30 05:06:52;;;;;;;;;8.00;8.00;;;;;15.02;41.26;99865.31;5150097;27;8835;-76
2022/12/30 05:09:21;;;;;;;;;9.40;9.00;;;;;15.14;41.22;99854.66;5134121;27;8835;-75
2022/12/30 05:11:50;;;;;;;;;11.40;10.80;;;;;15.17;41.08;99859.84;5134248;27;8865;-73
2022/12/30 05:14:18;;;;;;;;;14.20;12.00;;;;;15.11;41.18;99862.56;5152465;27;8843;-75
2022/12/30 05:16:47;;;;;;;;;10.00;8.60;;;;;15.17;41.04;99851.09;5152888;27;8843;-75
2022/12/30 05:19:18;;;;;;;;;11.00;9.80;;;;;15.11;41.17;99857.31;5133408;27;8904;-76
2022/12/30 05:21:46;;;;;;;;;12.60;12.60;;;;;15.23;40.79;99853.63;5078920;27;8849;-75
2022/12/30 05:27:01;;;;;;;;;10.80;9.60;;;;;15.15;40.80;99850.25;5130570;27;8845;-76
2022/12/30 05:29:29;;;;;;;;;10.60;10.20;;;;;15.22;40.88;99851.91;5112907;27;8845;-75
2022/12/30 05:31:58;;;;;;;;;10.00;10.00;;;;;15.17;40.69;99851.09;5114659;27;8864;-76
2022/12/30 05:34:29;;;;;;;;;11.00;11.00;;;;;15.25;40.71;99854.47;5151859;27;8847;-72
2022/12/30 05:36:57;;;;;;;;;13.80;12.40;;;;;15.14;40.88;99846.75;5082101;27;8871;-77
2022/12/30 05:39:26;;;;;;;;;12.40;12.40;;;;;15.09;41.05;99845.09;5133255;27;8830;-75
2022/12/30 05:41:55;;;;;;;;;15.60;13.60;;;;;15.18;40.64;99844.97;5147254;27;8843;-75
2022/12/30 05:44:25;;;;;;;;;9.40;9.40;;;;;15.16;40.83;99844.09;5133067;27;8835;-75
2022/12/30 05:46:54;;;;;;;;;12.80;11.80;;;;;15.07;41.00;99833.75;5151311;27;8994;-77
2022/12/30 05:49:23;;;;;;;;;14.60;14.60;;;;;14.90;41.17;99840.09;5151009;27;9896;-75
2022/12/30 05:51:53;;;;;;;;;11.80;10.40;;;;;14.89;41.17;99840.97;5132807;27;8871;-76
2022/12/30 05:54:22;;;;;;;;;10.60;10.60;;;;;14.85;41.18;99849.78;5080779;27;8955;-74
2022/12/30 05:56:50;;;;;;;;;12.20;10.20;;;;;14.81;41.31;99853.34;5150292;27;8954;-76
2022/12/30 05:59:19;;;;;;;;;11.00;11.00;;;;;14.64;41.51;99850.91;5115971;27;8835;-75
2022/12/30 06:01:48;;;;;;;;;13.20;11.00;;;;;14.75;41.25;99854.28;5123771;27;8850;-76
2022/12/30 06:04:18;;;;;;;;;11.40;9.20;;;;;14.85;40.88;99852.41;5115640;27;8854;-77
2022/12/30 06:06:47;;;;;;;;;11.20;11.20;;;;;14.84;40.99;99852.41;5151057;27;8897;-75
2022/12/30 06:09:17;;;;;;;;;14.00;12.60;;;;;14.73;41.23;99856.06;5132846;27;8846;-77
2022/12/30 06:11:45;;;;;;;;;16.00;14.40;;;;;14.84;41.07;99852.41;5069408;28;8908;-75
2022/12/30 06:14:15;;;;;;;;;12.20;10.60;;;;;14.95;40.79;99855.75;5100922;28;8947;-74
2022/12/30 06:16:44;;;;;;;;;12.60;10.80;;;;;14.95;40.63;99856.66;5045901;28;8888;-75
2022/12/30 06:19:13;;;;;;;;;12.20;11.40;;;;;15.01;40.52;99853.09;5086341;28;8842;-72
2022/12/30 06:21:41;;;;;;;;;13.40;13.00;;;;;14.82;40.66;99865.59;5068864;28;9698;-73
2022/12/30 06:24:10;;;;;;;;;17.20;15.40;;;;;14.87;40.65;99865.50;5086335;28;8845;-75
2022/12/30 06:26:40;;;;;;;;;12.60;11.40;;;;;15.09;40.45;99863.47;5068851;28;8968;-74
2022/12/30 06:29:09;;;;;;;;;15.00;14.80;;;;;15.04;40.38;99866.16;5068476;28;8838;-76
2022/12/30 06:31:38;;;;;;;;;13.80;11.80;;;;;14.92;40.68;99861.09;5085256;28;8873;-75
2022/12/30 06:34:07;;;;;;;;;15.60;14.40;;;;;14.91;40.77;99864.56;5065965;28;8869;-74
2022/12/30 06:36:35;;;;;;;;;12.80;12.80;;;;;14.93;40.49;99865.44;5012137;28;8872;-76
2022/12/30 06:39:04;;;;;;;;;16.20;12.20;;;;;14.87;40.92;99876.88;5045526;28;8951;-75
2022/12/30 06:41:33;;;;;;;;;30.60;30.40;;;;;15.09;40.21;99874.84;5045724;28;8897;-76
2022/12/30 06:44:03;;;;;;;;;17.60;15.20;;;;;15.05;40.32;99872.25;5044931;28;8995;-77
2022/12/30 06:46:32;;;;;;;;;16.80;14.60;;;;;15.01;40.49;99872.31;5028916;28;8942;-76
2022/12/30 06:49:01;;;;;;;;;11.80;11.80;;;;;15.08;40.32;99878.34;5031416;28;8887;-74
2022/12/30 06:51:30;;;;;;;;;15.00;14.00;;;;;15.08;40.28;99880.97;5089252;28;8855;-74
2022/12/30 06:53:59;;;;;;;;;11.60;10.60;;;;;15.16;40.04;99886.13;5088983;28;8848;-74
2022/12/30 06:56:27;;;;;;;;;13.80;12.60;;;;;15.20;40.12;99883.44;5089495;28;9001;-75
2022/12/30 06:58:56;;;;;;;;;15.20;14.20;;;;;15.17;40.22;99887.88;5089398;28;8847;-76
2022/12/30 07:01:26;;;;;;;;;13.80;11.00;;;;;15.31;40.05;99885.94;5071695;28;8847;-74
2022/12/30 07:03:55;;;;;;;;;15.00;14.40;;;;;15.31;40.04;99885.94;5105838;28;8844;-74
2022/12/30 07:06:24;;;;;;;;;15.60;15.60;;;;;15.36;40.09;99893.72;5055447;28;8994;-75
2022/12/30 07:08:53;;;;;;;;;17.40;16.60;;;;;15.40;40.26;99895.41;5110115;27;9598;-73
2022/12/30 07:11:21;;;;;;;;;16.00;14.00;;;;;15.42;39.60;99904.16;5129975;27;8849;-73
2022/12/30 07:13:50;;;;;;;;;16.80;15.40;;;;;15.36;39.83;99896.34;5112173;27;9029;-75
2022/12/30 07:16:19;;;;;;;;;14.20;11.20;;;;;15.43;39.76;99895.38;5128868;27;8853;-72
2022/12/30 07:18:50;;;;;;;;;18.60;16.80;;;;;15.50;39.47;99894.41;5115625;27;8833;-74
2022/12/30 07:21:20;;;;;;;;;12.20;12.00;;;;;15.47;39.57;99906.72;5146269;27;8866;-73
2022/12/30 07:23:48;;;;;;;;;17.00;14.60;;;;;15.70;39.00;99904.59;5129726;27;8831;-72
2022/12/30 07:26:17;;;;;;;;;19.00;15.00;;;;;15.77;39.26;99903.66;5115977;27;8934;-73
2022/12/30 07:28:46;;;;;;;;;14.00;11.60;;;;;15.88;39.14;99906.13;5149728;27;8859;-74
2022/12/30 07:31:21;;;;;;;;;14.40;14.40;;;;;16.00;38.69;99907.66;5131018;27;8859;-73
2022/12/30 07:33:51;;;;;;;;;18.00;18.00;;;;;15.88;38.77;99911.38;5129700;27;8899;-74
2022/12/30 07:36:20;;;;;;;;;13.00;12.00;;;;;15.78;38.92;99917.66;5093786;27;8861;-80
2022/12/30 07:38:49;;;;;;;;;16.40;15.40;;;;;15.68;39.14;99913.41;5128160;27;8829;-75
2022/12/30 07:41:17;;;;;;;;;16.80;15.60;;;;;15.76;39.25;99914.19;5099085;27;8851;-76
2022/12/30 07:43:46;;;;;;;;;10.60;10.20;;;;;15.79;38.75;99916.78;5094265;27;9556;-81
2022/12/30 07:46:15;;;;;;;;;13.00;13.00;;;;;15.71;39.14;99916.88;5107908;27;8883;-77
2022/12/30 07:48:44;;;;;;;;;16.00;15.00;;;;;15.83;38.82;99913.19;5110270;27;8845;-78
2022/12/30 07:51:16;;;;;;;;;10.00;9.80;;;;;15.83;38.91;99907.09;5114083;27;8857;-74
2022/12/30 07:53:45;;;;;;;;;17.00;16.00;;;;;16.05;38.26;99915.47;5095039;28;8867;-77
2022/12/30 07:56:15;;;;;;;;;14.40;14.40;;;;;15.79;38.60;99911.53;5083147;28;9633;-78
2022/12/30 07:58:43;;;;;;;;;12.40;12.20;;;;;16.13;38.29;99917.06;5068652;28;8843;-76
2022/12/30 08:01:13;;;;;;;;;13.80;11.20;;;;;16.31;37.97;99923.81;5070865;28;8859;-78
2022/12/30 08:03:43;;;;;;;;;8.00;7.80;;;;;16.60;37.33;99926.75;5087837;28;9064;-75
2022/12/30 08:06:15;;;;;;;;;12.40;12.20;;;;;16.49;37.60;99932.25;5067645;28;8954;-75
2022/12/30 08:08:44;;;;;;;;;13.40;13.40;;;;;16.56;37.31;99931.25;5068139;28;9031;-76
2022/12/30 08:11:15;;;;;;;;;16.40;15.60;;;;;16.58;37.74;99929.44;5084307;28;8890;-76
2022/12/30 08:13:44;;;;;;;;;12.00;12.00;;;;;16.65;37.45;99932.81;5066613;28;8827;-75
2022/12/30 08:16:16;;;;;;;;;13.80;13.80;;;;;16.66;37.32;99926.66;5050279;28;8921;-74
2022/12/30 08:18:45;;;;;;;;;13.40;12.00;;;;;16.84;37.11;99934.25;5067311;28;8885;-75
2022/12/30 08:21:17;;;;;;;;;13.60;11.60;;;;;16.75;37.37;99929.97;5068521;28;8831;-73
2022/12/30 08:23:46;;;;;;;;;16.80;14.40;;;;;16.87;36.82;99933.31;5044531;28;8834;-80
2022/12/30 08:26:19;;;;;;;;;16.80;14.00;;;;;17.00;36.67;99940.06;5089026;28;9485;-79
2022/12/30 08:28:49;;;;;;;;;19.40;14.40;;;;;17.15;36.63;99938.88;5086345;28;9032;-78
2022/12/30 08:31:20;;;;;;;;;16.80;14.00;;;;;17.18;36.48;99946.69;5087533;28;8973;-76
2022/12/30 08:33:50;;;;;;;;;18.60;17.60;;;;;17.04;36.57;99943.50;5085971;28;8831;-78
2022/12/30 08:36:22;;;;;;;;;17.00;15.60;;;;;17.24;36.57;99949.22;5086866;27;8917;-76
2022/12/30 08:38:53;;;;;;;;;20.80;17.80;;;;;17.38;36.44;99956.81;5118165;27;8871;-78
2022/12/30 08:41:23;;;;;;;;;19.00;16.20;;;;;17.53;35.61;99951.22;5112358;27;9712;-77
2022/12/30 08:43:55;;;;;;;;;18.40;14.60;;;;;17.68;36.08;99962.31;5129540;27;8835;-76
2022/12/30 08:46:26;;;;;;;;;16.80;16.40;;;;;17.74;35.46;99965.66;5065799;28;8855;-77
2022/12/30 08:48:56;;;;;;;;;16.60;15.00;;;;;18.01;35.13;99967.72;5034000;28;8863;-79
2022/12/30 08:51:27;;;;;;;;;18.00;17.40;;;;;18.14;35.24;99974.44;5077899;28;8859;-78
2022/12/30 08:53:56;;;;;;;;;21.60;18.80;;;;;18.02;34.75;99975.59;5051610;28;8882;-78
2022/12/30 08:56:28;;;;;;;;;19.20;18.60;;;;;18.18;34.88;99972.59;5052577;28;8894;-81
2022/12/30 08:58:58;;;;;;;;;20.60;18.00;;;;;18.38;34.51;99982.66;5087732;28;8848;-80
2022/12/30 09:01:28;;;;;;;;;16.00;15.80;;;;;18.56;34.25;99979.50;5088596;28;8847;-78
2022/12/30 09:03:58;;;;;;;;;19.00;15.60;;;;;18.71;34.29;99980.88;5087593;28;9588;-81
2022/12/30 09:06:30;;;;;;;;;20.00;17.60;;;;;18.94;33.76;99982.06;5091246;28;8881;-80
2022/12/30 09:09:00;;;;;;;;;16.40;16.00;;;;;19.12;34.10;99985.97;5090706;28;8824;-79
2022/12/30 09:11:31;;;;;;;;;19.80;18.60;;;;;19.17;33.22;99981.41;5090454;28;8968;-78
2022/12/30 09:14:03;;;;;;;;;19.80;19.80;;;;;19.34;32.94;99987.09;5091066;28;8856;-79
2022/12/30 09:16:32;;;;;;;;;20.40;17.00;;;;;19.59;32.75;99984.56;5039274;27;8854;-77
2022/12/30 09:19:02;;;;;;;;;16.80;16.60;;;;;19.68;32.39;99983.44;5127098;27;8845;-80
2022/12/30 09:21:33;;;;;;;;;19.20;18.80;;;;;19.94;32.36;99981.75;5112803;27;8868;-78
2022/12/30 09:24:02;;;;;;;;;12.00;11.20;;;;;20.12;31.95;99981.16;5118278;27;9029;-82
2022/12/30 09:26:31;;;;;;;;;15.60;14.00;;;;;20.32;31.75;99972.56;5112796;27;8857;-79
2022/12/30 09:29:00;;;;;;;;;15.20;14.80;;;;;20.44;31.08;99971.28;5130705;27;8888;-80
2022/12/30 09:31:29;;;;;;;;;9.40;7.20;;;;;20.51;31.63;99972.81;5113961;27;8939;-78
2022/12/30 09:33:58;;;;;;;;;15.40;14.80;;;;;20.56;30.98;99972.63;5106386;28;8858;-76
2022/12/30 09:36:27;;;;;;;;;17.00;15.40;;;;;20.66;31.00;99971.41;5038720;28;8992;-80
2022/12/30 09:38:58;;;;;;;;;14.40;13.20;;;;;20.40;30.94;99978.47;5090414;28;8985;-79
2022/12/30 09:44:38;;;;;;;;;18.00;17.60;;;;;20.60;31.05;99972.53;5073935;28;8876;-77
2022/12/30 09:47:19;;;;;;;;;13.80;13.20;;;;;20.75;30.92;99975.53;5073717;28;8873;-77
2022/12/30 09:49:57;;;;;;;;;16.20;15.60;;;;;20.61;31.19;99981.34;5106396;28;8930;-78
2022/12/30 09:52:29;;;;;;;;;15.80;13.40;;;;;20.75;30.82;99970.22;5107827;28;9682;-82
2022/12/30 09:55:05;;;;;;;;;18.40;12.40;;;;;20.84;30.69;99973.41;5090174;28;8858;-80
2022/12/30 09:57:36;;;;;;;;;16.20;15.20;;;;;20.94;30.43;99975.75;5105757;28;8850;-77
2022/12/30 10:00:12;;;;;;;;;14.40;14.40;;;;;21.05;30.31;99976.22;5090062;28;8870;-81
2022/12/30 10:02:56;;;;;;;;;18.40;15.00;;;;;20.87;29.99;99975.09;5070267;28;8853;-75
2022/12/30 10:05:46;;;;;;;;;17.60;15.80;;;;;20.95;30.35;99980.13;5095970;27;8833;-79
2022/12/30 10:08:29;;;;;;;;;13.20;13.20;;;;;21.06;29.97;99977.94;5129082;27;8831;-77
2022/12/30 10:11:10;;;;;;;;;14.80;14.20;;;;;20.51;30.13;99986.06;5082298;27;9028;-79
2022/12/30 10:13:48;;;;;;;;;19.80;17.00;;;;;20.52;30.20;99979.81;5117152;27;8946;-78
2022/12/30 10:16:26;;;;;;;;;13.40;12.40;;;;;20.52;30.18;99982.47;5137164;27;8857;-77
2022/12/30 10:19:08;;;;;;;;;13.60;12.60;;;;;20.87;30.28;99977.75;5112363;27;9011;-75
2022/12/30 10:21:50;;;;;;;;;14.60;14.60;;;;;21.07;30.04;99982.31;5061263;27;8911;-77
2022/12/30 10:24:43;;;;;;;;;16.80;15.60;;;;;21.35;29.69;99986.59;5143509;27;8842;-79
2022/12/30 10:27:19;;;;;;;;;19.80;18.60;;;;;20.37;29.80;99983.84;5129520;27;8853;-80
2022/12/30 10:29:48;;;;;;;;;19.60;19.40;;;;;20.71;29.46;99979.22;5111677;27;8853;-78
2022/12/30 10:32:29;;;;;;;;;17.40;13.80;;;;;20.84;29.93;99978.72;5112153;27;8842;-78
2022/12/30 10:35:03;;;;;;;;;19.60;18.00;;;;;20.82;29.96;99975.25;5125299;27;8865;-82
2022/12/30 10:37:34;;;;;;;;;23.60;18.40;;;;;20.73;29.88;99975.59;5129464;27;8864;-79
2022/12/30 10:40:09;;;;;;;;;18.20;17.40;;;;;20.97;29.77;99975.63;5128917;27;8849;-80
2022/12/30 10:43:23;;;;;;;;;13.20;11.20;;;;;20.92;29.71;99970.47;5130361;27;8923;-77
2022/12/30 10:46:06;;;;;;;;;12.40;11.80;;;;;21.16;29.67;99968.72;5111959;27;8850;-77
2022/12/30 10:49:03;;;;;;;;;19.40;17.80;;;;;21.11;29.37;99969.81;5111588;27;8926;-78
2022/12/30 10:51:31;;;;;;;;;19.60;18.80;;;;;20.96;29.81;99965.94;5111326;27;8830;-77
2022/12/30 10:54:01;;;;;;;;;12.80;12.80;;;;;21.11;29.48;99962.72;5128263;27;8852;-78
2022/12/30 10:56:32;;;;;;;;;16.00;15.80;;;;;21.14;29.75;99959.09;5131317;27;8869;-79
2022/12/30 10:59:07;;;;;;;;;13.60;13.00;;;;;21.31;29.20;99955.81;5128915;27;8830;-79
2022/12/30 11:01:37;;;;;;;;;13.00;13.00;;;;;21.19;29.10;99959.78;5114224;27;8843;-78
2022/12/30 11:04:06;;;;;;;;;13.80;13.00;;;;;20.39;29.85;99959.97;5095607;27;8866;-79
2022/12/30 11:06:36;;;;;;;;;12.40;11.60;;;;;20.48;30.23;99959.66;5093458;27;8889;-79
2022/12/30 11:09:23;;;;;;;;;11.60;9.20;;;;;20.97;29.71;99947.31;5143705;27;9572;-79
2022/12/30 11:15:14;;;;;;;;;16.20;15.40;;;;;20.40;30.04;99948.47;5110565;27;8814;-80
2022/12/30 11:17:48;;;;;;;;;15.20;12.40;;;;;20.50;30.22;99944.56;5129602;27;8942;-79
2022/12/30 11:20:36;;;;;;;;;10.20;10.20;;;;;20.98;29.95;99942.88;5110838;27;8841;-79
2022/12/30 11:23:23;;;;;;;;;11.40;9.60;;;;;20.83;29.46;99944.31;5128266;27;8860;-79
2022/12/30 11:25:53;;;;;;;;;14.20;11.80;;;;;21.02;29.64;99945.38;5115198;27;8837;-76
2022/12/30 11:28:25;;;;;;;;;10.80;10.80;;;;;21.18;29.45;99943.00;5110759;27;8858;-78
2022/12/30 11:30:59;;;;;;;;;10.60;10.60;;;;;21.35;29.23;99947.66;5094911;27;8845;-77
2022/12/30 11:33:31;;;;;;;;;13.80;12.20;;;;;21.09;29.45;99939.84;5127203;27;8833;-77
2022/12/30 11:36:20;;;;;;;;;9.60;9.60;;;;;21.32;29.38;99946.91;5127527;27;8880;-82
2022/12/30 11:38:49;;;;;;;;;11.40;9.40;;;;;21.31;29.14;99947.84;5112269;27;9582;-78
2022/12/30 11:41:25;;;;;;;;;13.60;13.60;;;;;21.21;28.96;99948.19;5078893;27;8849;-78
2022/12/30 11:44:13;;;;;;;;;13.80;13.80;;;;;21.36;29.49;99945.88;5129104;27;8867;-77
2022/12/30 11:46:47;;;;;;;;;14.60;13.40;;;;;21.38;29.45;99947.56;5125628;27;8868;-77
2022/12/30 11:49:30;;;;;;;;;13.80;12.20;;;;;21.60;29.06;99952.91;5127476;27;8855;-77
2022/12/30 11:52:07;;;;;;;;;12.60;9.80;;;;;21.55;28.84;99944.28;5125306;27;8884;-79
2022/12/30 11:54:43;;;;;;;;;10.80;10.20;;;;;21.65;28.93;99942.13;5124658;27;8933;-79
2022/12/30 11:57:27;;;;;;;;;10.80;9.60;;;;;21.33;28.70;99938.03;5111034;27;8880;-78
2022/12/30 11:59:58;;;;;;;;;18.80;18.00;;;;;20.91;29.45;99946.72;5130046;27;8874;-78
2022/12/30 12:02:33;;;;;;;;;0.00;0.00;;;;;20.86;29.51;99952.16;5126481;27;8944;-76
2022/12/30 12:05:06;;;;;;;;;19.00;14.40;;;;;20.82;29.42;99951.41;5115777;27;8843;-78
2022/12/30 12:07:38;;;;;;;;;15.00;13.80;;;;;21.03;29.39;99944.44;5135931;27;8837;-79
2022/12/30 12:10:19;;;;;;;;;12.60;12.40;;;;;21.15;29.19;99944.91;5122776;27;8933;-79
2022/12/30 12:12:54;;;;;;;;;16.20;14.80;;;;;20.81;29.50;99940.84;5100286;27;8888;-79
2022/12/30 12:15:33;;;;;;;;;10.80;10.20;;;;;21.12;29.29;99942.38;5126571;27;8863;-82
2022/12/30 12:18:11;;;;;;;;;11.60;11.60;;;;;21.39;28.92;99945.75;5129046;27;8841;-81
2022/12/30 12:20:45;;;;;;;;;9.00;9.00;;;;;21.29;28.45;99944.41;5125004;27;8888;-79
2022/12/30 12:23:23;;;;;;;;;7.20;7.20;;;;;21.08;28.83;99943.41;5130857;27;8916;-78
2022/12/30 12:26:05;;;;;;;;;7.80;7.80;;;;;21.20;28.91;99942.94;5121922;27;9565;-80
2022/12/30 12:28:38;;;;;;;;;11.60;10.60;;;;;21.34;28.63;99947.72;5111781;27;8877;-84
2022/12/30 12:31:25;;;;;;;;;8.80;7.80;;;;;20.35;29.29;99956.56;5125325;27;8837;-82
2022/12/30 12:34:04;;;;;;;;;7.00;7.00;;;;;19.36;30.84;99952.69;5123259;27;8884;-82
2022/12/30 12:36:45;;;;;;;;;19.40;12.60;;;;;19.40;31.14;99959.59;5107917;28;8867;-80
2022/12/30 12:39:21;;;;;;;;;16.60;15.40;;;;;19.90;30.74;99953.66;5091397;28;8855;-79
2022/12/30 12:42:00;;;;;;;;;18.60;17.20;;;;;19.75;30.99;99950.59;5106384;28;8852;-75
2022/12/30 12:45:04;;;;;;;;;20.20;18.40;;;;;20.34;30.57;99948.66;5107419;28;9074;-81
2022/12/30 12:47:49;;;;;;;;;14.60;14.60;;;;;20.59;29.72;99946.03;5105056;28;8860;-78
2022/12/30 12:50:43;;;;;;;;;16.00;14.40;;;;;20.72;29.40;99947.38;5090509;28;8852;-77